CheckWX is a tool to help pilots better visualize weather data.  It is not intended as a substitute for an official pre-flight weather briefing.

20:13:59 UTC

6S0 METAR
Big Timber Airport
Big Timber, Montana, USA
Current

14 mins ago

K6S0 262000Z AUTO 13010KT 10SM CLR 20/09 A2998 RMK A01
Observed
Jun-26 @ 20:00 UTC
Wind
  • 130° at 10 KTS
Visibility
10 SM
Flight Rules
VFR
Cloud Levels
  • Clear skies
Temperature
20°C / 68°F
Dewpoint
C / 48°F
Humidity
49%
Altimeter
29.98" Hg
Pressure
1015.22 hPa
Previous

34 mins ago

K6S0 261940Z AUTO 11006G13KT 10SM CLR 21/10 A2998 RMK A01
Observed
Jun-26 @ 19:40 UTC
Wind
  • 110° at 6 KTS
  • Gusting to 13 KTS
Visibility
10 SM
Flight Rules
VFR
Cloud Levels
  • Clear skies
Temperature
21°C / 70°F
Dewpoint
10°C / 50°F
Humidity
50%
Altimeter
29.98" Hg
Pressure
1015.22 hPa
Previous

54 mins ago

K6S0 261920Z AUTO 10009KT 10SM CLR 22/10 A2998 RMK A01
Observed
Jun-26 @ 19:20 UTC
Wind
  • 100° at 9 KTS
Visibility
10 SM
Flight Rules
VFR
Cloud Levels
  • Clear skies
Temperature
22°C / 72°F
Dewpoint
10°C / 50°F
Humidity
47%
Altimeter
29.98" Hg
Pressure
1015.22 hPa